Time;durP1;ratioP1;P1;durP2;ratioP2;P2;SDS_P1;SDS_P2;PMS_P1;PMS_P2;Temp;Humidity;BMP_temperature;BMP_pressure;BME280_temperature;BME280_humidity;BME280_pressure;Samples;Min_cycle;Max_cycle;Signal;HPM_P1;HPM_P2
2022/04/30 00:00:57;;;;;;;8.27;4.60;;;;;;;;;;12669135;23;20205;-70
2022/04/30 00:05:58;;;;;;;7.97;4.00;;;;;;;;;;12648629;23;20201;-70
2022/04/30 00:10:59;;;;;;;7.28;3.97;;;;;;;;;;12652270;23;20180;-69
2022/04/30 00:16:00;;;;;;;7.70;4.20;;;;;;;;;;12649173;23;20244;-70
2022/04/30 00:21:01;;;;;;;5.22;4.20;;;;;;;;;;12650488;23;20559;-71
2022/04/30 00:26:03;;;;;;;6.28;4.45;;;;;;;;;;12648167;23;20507;-70
2022/04/30 00:31:04;;;;;;;4.80;4.22;;;;;;;;;;12648582;23;20258;-71
2022/04/30 00:36:06;;;;;;;8.38;4.57;;;;;;;;;;12674107;23;20228;-71
2022/04/30 00:41:08;;;;;;;8.70;4.95;;;;;;;;;;12648054;23;20200;-70
2022/04/30 00:46:12;;;;;;;4.82;4.00;;;;;;;;;;12648993;23;20226;-71
2022/04/30 00:51:14;;;;;;;5.32;4.72;;;;;;;;;;12649823;23;20173;-71
2022/04/30 00:56:18;;;;;;;5.57;4.40;;;;;;;;;;12676989;23;20301;-70
2022/04/30 01:01:19;;;;;;;5.38;4.90;;;;;;;;;;12653671;23;20197;-71
2022/04/30 01:06:55;;;;;;;5.88;4.93;;;;;;;;;;12653280;23;20210;-71
2022/04/30 01:11:57;;;;;;;10.40;5.55;;;;;;;;;;12655297;23;20180;-71
2022/04/30 01:17:04;;;;;;;5.15;4.78;;;;;;;;;;12654552;23;20180;-70
2022/04/30 01:22:22;;;;;;;6.07;5.03;;;;;;;;;;12656404;23;20252;-70
2022/04/30 01:27:26;;;;;;;10.13;5.90;;;;;;;;;;12654259;23;20509;-71
2022/04/30 01:37:54;;;;;;;6.70;5.63;;;;;;;;;;12655070;23;20271;-71
2022/04/30 01:42:58;;;;;;;9.43;5.78;;;;;;;;;;12675160;23;20208;-71
2022/04/30 01:47:59;;;;;;;8.15;5.75;;;;;;;;;;12656069;23;20699;-71
2022/04/30 01:53:00;;;;;;;9.73;6.13;;;;;;;;;;12626350;23;20240;-71
2022/04/30 01:58:01;;;;;;;9.13;6.05;;;;;;;;;;12651257;23;20188;-70
2022/04/30 02:03:05;;;;;;;9.23;5.72;;;;;;;;;;12648633;23;20227;-71
2022/04/30 02:08:07;;;;;;;7.18;5.85;;;;;;;;;;12651130;23;20204;-71
2022/04/30 02:13:10;;;;;;;7.03;6.40;;;;;;;;;;12652323;23;20181;-71
2022/04/30 02:18:15;;;;;;;8.85;6.30;;;;;;;;;;12653179;23;20667;-71
2022/04/30 02:23:16;;;;;;;8.43;6.63;;;;;;;;;;12655059;23;20176;-71
2022/04/30 02:28:17;;;;;;;13.23;6.43;;;;;;;;;;12653990;23;20200;-71
2022/04/30 02:33:19;;;;;;;8.65;5.88;;;;;;;;;;12654921;23;20204;-71
2022/04/30 02:38:20;;;;;;;7.85;6.10;;;;;;;;;;12656086;23;20188;-71
2022/04/30 02:43:26;;;;;;;6.82;6.18;;;;;;;;;;12650900;23;20791;-70
2022/04/30 02:48:27;;;;;;;9.05;6.53;;;;;;;;;;12651943;23;20275;-71
2022/04/30 02:53:28;;;;;;;8.23;6.45;;;;;;;;;;12652854;23;20181;-71
2022/04/30 03:03:49;;;;;;;8.25;5.95;;;;;;;;;;12650616;23;20208;-71
2022/04/30 03:08:50;;;;;;;10.77;6.30;;;;;;;;;;12654585;23;20291;-71
2022/04/30 03:13:51;;;;;;;12.55;6.60;;;;;;;;;;12649440;23;20180;-71
2022/04/30 03:24:15;;;;;;;6.68;6.05;;;;;;;;;;12650025;23;20185;-71
2022/04/30 03:29:18;;;;;;;7.68;5.85;;;;;;;;;;12655124;23;20193;-71
2022/04/30 03:34:19;;;;;;;9.52;6.88;;;;;;;;;;12656730;23;20207;-71
2022/04/30 03:39:20;;;;;;;7.85;6.20;;;;;;;;;;12628492;23;20192;-71
2022/04/30 03:44:21;;;;;;;8.77;6.90;;;;;;;;;;12654035;23;20205;-70
2022/04/30 03:49:22;;;;;;;8.18;5.88;;;;;;;;;;12655416;23;20200;-69
2022/04/30 03:54:23;;;;;;;7.22;6.03;;;;;;;;;;12656025;23;20192;-71
2022/04/30 03:59:24;;;;;;;6.68;6.00;;;;;;;;;;12629615;23;20191;-70
2022/04/30 04:04:29;;;;;;;8.93;5.93;;;;;;;;;;12654254;23;20234;-71
2022/04/30 04:09:30;;;;;;;6.75;6.10;;;;;;;;;;12656767;23;20196;-69
2022/04/30 04:19:51;;;;;;;5.47;5.18;;;;;;;;;;12656011;23;20173;-70
2022/04/30 04:30:12;;;;;;;8.93;4.78;;;;;;;;;;12658362;23;20194;-71
2022/04/30 04:35:14;;;;;;;5.82;5.20;;;;;;;;;;12656366;23;20239;-67
2022/04/30 04:40:16;;;;;;;5.55;4.50;;;;;;;;;;12656627;23;20390;-72
2022/04/30 04:45:17;;;;;;;6.68;4.78;;;;;;;;;;12656911;23;20212;-71
2022/04/30 04:50:18;;;;;;;12.05;4.65;;;;;;;;;;12658655;23;20176;-71
2022/04/30 04:55:19;;;;;;;5.28;4.85;;;;;;;;;;12659239;23;20188;-72
2022/04/30 05:00:20;;;;;;;5.45;4.93;;;;;;;;;;12654181;23;20212;-71
2022/04/30 05:05:21;;;;;;;6.05;4.85;;;;;;;;;;12630325;23;20283;-71
2022/04/30 05:10:23;;;;;;;4.28;4.07;;;;;;;;;;12655157;23;20272;-72
2022/04/30 05:15:24;;;;;;;4.72;4.32;;;;;;;;;;12655628;23;20185;-72
2022/04/30 05:20:25;;;;;;;7.53;4.55;;;;;;;;;;12655031;23;20173;-68
2022/04/30 05:25:26;;;;;;;5.03;4.63;;;;;;;;;;12656675;23;20204;-70
2022/04/30 05:30:28;;;;;;;5.30;4.80;;;;;;;;;;12657413;23;20215;-72
2022/04/30 05:35:29;;;;;;;4.93;4.45;;;;;;;;;;12627968;23;20184;-72
2022/04/30 05:40:30;;;;;;;4.45;4.05;;;;;;;;;;12662086;23;20251;-71
2022/04/30 05:45:31;;;;;;;5.32;4.00;;;;;;;;;;12661404;23;20212;-72
2022/04/30 05:50:33;;;;;;;4.18;3.97;;;;;;;;;;12661447;23;20657;-72
2022/04/30 05:55:34;;;;;;;4.60;4.30;;;;;;;;;;12662999;23;20217;-72
2022/04/30 06:00:35;;;;;;;6.72;4.40;;;;;;;;;;12661108;23;20215;-71
2022/04/30 06:05:37;;;;;;;4.53;3.50;;;;;;;;;;12655898;23;20192;-72
2022/04/30 06:10:38;;;;;;;3.78;3.47;;;;;;;;;;12631691;23;20307;-71
2022/04/30 06:15:39;;;;;;;3.55;3.35;;;;;;;;;;12659630;23;20191;-72
2022/04/30 06:20:40;;;;;;;4.50;4.20;;;;;;;;;;12657482;23;20184;-72
2022/04/30 06:25:41;;;;;;;4.00;3.70;;;;;;;;;;12661820;23;20344;-72
2022/04/30 06:30:42;;;;;;;5.13;4.03;;;;;;;;;;12660371;23;20287;-71
2022/04/30 06:35:44;;;;;;;3.70;3.40;;;;;;;;;;12662095;23;20677;-71
2022/04/30 06:40:46;;;;;;;4.90;3.40;;;;;;;;;;12660950;23;20243;-71
2022/04/30 06:45:47;;;;;;;5.45;3.70;;;;;;;;;;12631915;23;20248;-71
2022/04/30 06:50:48;;;;;;;4.70;4.10;;;;;;;;;;12658594;23;20185;-71
2022/04/30 07:06:29;;;;;;;4.03;3.63;;;;;;;;;;12653114;23;20196;-71
2022/04/30 07:11:30;;;;;;;5.75;3.70;;;;;;;;;;12652847;23;20192;-71
2022/04/30 07:16:32;;;;;;;4.05;3.45;;;;;;;;;;12648917;23;20181;-71
2022/04/30 07:21:33;;;;;;;5.88;3.88;;;;;;;;;;12655435;23;20196;-72
2022/04/30 07:26:34;;;;;;;3.92;3.65;;;;;;;;;;12651920;23;20244;-71
2022/04/30 07:31:36;;;;;;;3.88;3.58;;;;;;;;;;12658599;23;20204;-71
2022/04/30 07:36:37;;;;;;;4.13;3.67;;;;;;;;;;12657831;23;20635;-72
2022/04/30 07:41:39;;;;;;;9.07;3.33;;;;;;;;;;12653831;23;20204;-71
2022/04/30 07:46:40;;;;;;;3.15;2.92;;;;;;;;;;12654508;23;20196;-71
2022/04/30 07:51:53;;;;;;;5.45;3.90;;;;;;;;;;12657147;23;20199;-72
2022/04/30 07:56:55;;;;;;;4.00;3.72;;;;;;;;;;12654479;23;20195;-72
2022/04/30 08:01:56;;;;;;;8.00;4.22;;;;;;;;;;12654575;23;20201;-72
2022/04/30 08:06:59;;;;;;;8.38;4.35;;;;;;;;;;12657169;23;20196;-72
2022/04/30 08:12:00;;;;;;;4.03;3.70;;;;;;;;;;12678978;23;20212;-71
2022/04/30 08:17:01;;;;;;;4.40;3.58;;;;;;;;;;12656881;23;20215;-71
2022/04/30 08:22:02;;;;;;;5.35;3.88;;;;;;;;;;12656967;23;20216;-71
2022/04/30 08:27:03;;;;;;;6.00;3.55;;;;;;;;;;12657593;23;20205;-70
2022/04/30 08:32:05;;;;;;;3.83;3.50;;;;;;;;;;12657349;23;20626;-71
2022/04/30 08:37:06;;;;;;;3.35;3.15;;;;;;;;;;12655858;23;20184;-71
2022/04/30 08:42:07;;;;;;;4.47;3.85;;;;;;;;;;12655591;23;20240;-71
2022/04/30 08:47:11;;;;;;;6.75;3.55;;;;;;;;;;12654443;23;20275;-71
2022/04/30 08:52:15;;;;;;;3.83;3.45;;;;;;;;;;12656843;23;20492;-69
2022/04/30 08:57:16;;;;;;;4.20;2.88;;;;;;;;;;12656759;23;20196;-71
2022/04/30 09:02:17;;;;;;;3.83;3.65;;;;;;;;;;12656331;23;20208;-71
2022/04/30 09:07:19;;;;;;;3.38;3.10;;;;;;;;;;12654919;23;20199;-70
2022/04/30 09:12:20;;;;;;;4.90;3.00;;;;;;;;;;12655174;23;20653;-71
2022/04/30 09:17:22;;;;;;;4.30;3.20;;;;;;;;;;12657391;23;20188;-70
2022/04/30 09:22:30;;;;;;;4.65;3.20;;;;;;;;;;12659053;23;20189;-69
2022/04/30 09:27:32;;;;;;;4.55;3.75;;;;;;;;;;12654862;23;20193;-70
2022/04/30 09:32:33;;;;;;;3.20;3.00;;;;;;;;;;12654750;23;20598;-69
2022/04/30 09:37:46;;;;;;;5.88;3.28;;;;;;;;;;12657445;23;20755;-69
2022/04/30 09:42:48;;;;;;;4.68;3.72;;;;;;;;;;12656313;23;20196;-69
2022/04/30 09:47:49;;;;;;;6.15;3.67;;;;;;;;;;12660104;23;20220;-69
2022/04/30 09:58:25;;;;;;;3.80;3.35;;;;;;;;;;12628560;23;20193;-69
2022/04/30 10:03:29;;;;;;;4.10;3.80;;;;;;;;;;12651285;23;20239;-68
2022/04/30 10:08:33;;;;;;;3.83;3.10;;;;;;;;;;12653922;23;20189;-69
2022/04/30 10:13:40;;;;;;;4.20;3.45;;;;;;;;;;12652770;23;20181;-69
2022/04/30 10:18:46;;;;;;;4.13;3.70;;;;;;;;;;12652363;23;21020;-69
2022/04/30 10:23:47;;;;;;;3.90;3.47;;;;;;;;;;12654607;23;20259;-69
2022/04/30 10:28:57;;;;;;;7.93;4.03;;;;;;;;;;12655870;23;20196;-69
2022/04/30 10:33:58;;;;;;;4.10;3.50;;;;;;;;;;12654241;23;20278;-69
2022/04/30 10:39:02;;;;;;;6.03;3.88;;;;;;;;;;12656001;23;20188;-69
2022/04/30 10:44:04;;;;;;;3.88;3.50;;;;;;;;;;12658267;23;20722;-68
2022/04/30 10:49:06;;;;;;;3.58;3.35;;;;;;;;;;12629849;23;20709;-69
2022/04/30 10:54:12;;;;;;;3.53;3.25;;;;;;;;;;12656288;23;20196;-69
2022/04/30 10:59:21;;;;;;;5.00;3.80;;;;;;;;;;12655352;23;20231;-69
2022/04/30 11:04:23;;;;;;;4.65;3.63;;;;;;;;;;12653734;23;20227;-68
2022/04/30 11:09:24;;;;;;;5.10;3.55;;;;;;;;;;12653799;23;20263;-69
2022/04/30 11:14:25;;;;;;;4.18;3.20;;;;;;;;;;12651549;23;20278;-68
2022/04/30 11:19:26;;;;;;;4.72;3.60;;;;;;;;;;12651054;23;20268;-68
2022/04/30 11:24:28;;;;;;;4.07;3.78;;;;;;;;;;12649767;23;20266;-68
2022/04/30 11:29:30;;;;;;;4.28;3.65;;;;;;;;;;12652533;23;20191;-68
2022/04/30 11:34:31;;;;;;;4.03;3.70;;;;;;;;;;12655449;23;20212;-67
2022/04/30 11:39:32;;;;;;;3.97;3.58;;;;;;;;;;12655737;23;20189;-67
2022/04/30 11:44:33;;;;;;;4.28;3.67;;;;;;;;;;12652758;23;20203;-67
2022/04/30 11:49:35;;;;;;;4.55;3.38;;;;;;;;;;12653612;23;20276;-66
2022/04/30 11:54:38;;;;;;;6.88;3.72;;;;;;;;;;12627400;23;20211;-69
2022/04/30 11:59:41;;;;;;;4.50;4.20;;;;;;;;;;12656283;23;20301;-68
2022/04/30 12:04:42;;;;;;;5.43;3.22;;;;;;;;;;12654899;23;20201;-68
2022/04/30 12:09:47;;;;;;;4.30;3.72;;;;;;;;;;12654947;23;20199;-67
2022/04/30 12:14:52;;;;;;;4.40;3.75;;;;;;;;;;12630478;23;20181;-68
2022/04/30 12:25:20;;;;;;;5.07;3.13;;;;;;;;;;12655238;23;20193;-68
2022/04/30 12:30:23;;;;;;;4.05;3.53;;;;;;;;;;12653291;23;20185;-68
2022/04/30 12:35:25;;;;;;;3.72;3.53;;;;;;;;;;12653881;23;20693;-68
2022/04/30 12:40:26;;;;;;;6.97;4.10;;;;;;;;;;12626988;23;20267;-66
2022/04/30 12:45:27;;;;;;;4.47;3.30;;;;;;;;;;12655132;23;20298;-69
2022/04/30 12:50:29;;;;;;;8.38;4.13;;;;;;;;;;12656715;23;20181;-73
2022/04/30 12:55:30;;;;;;;5.15;3.72;;;;;;;;;;12662261;23;20204;-75
2022/04/30 13:00:34;;;;;;;5.10;3.55;;;;;;;;;;12663324;23;20196;-77
2022/04/30 13:05:36;;;;;;;3.78;3.47;;;;;;;;;;12661319;23;20228;-76
2022/04/30 13:15:58;;;;;;;4.72;3.10;;;;;;;;;;12663058;23;20184;-75
2022/04/30 13:20:59;;;;;;;6.78;3.95;;;;;;;;;;12662001;23;20259;-75
2022/04/30 13:26:00;;;;;;;5.25;3.30;;;;;;;;;;12636492;23;20279;-74
2022/04/30 13:31:01;;;;;;;5.75;3.72;;;;;;;;;;12659162;23;20201;-76
2022/04/30 13:36:02;;;;;;;3.65;3.42;;;;;;;;;;12662698;23;20248;-73
2022/04/30 13:41:03;;;;;;;3.50;3.20;;;;;;;;;;12661226;23;20200;-74
2022/04/30 13:46:04;;;;;;;3.75;3.30;;;;;;;;;;12658967;23;20201;-72
2022/04/30 13:51:05;;;;;;;3.58;3.33;;;;;;;;;;12659629;23;20180;-71
2022/04/30 13:56:07;;;;;;;3.33;3.00;;;;;;;;;;12663888;23;20199;-72
2022/04/30 14:01:08;;;;;;;3.72;3.45;;;;;;;;;;12661539;23;20729;-71
2022/04/30 14:06:10;;;;;;;6.18;4.13;;;;;;;;;;12633170;23;20474;-74
2022/04/30 14:11:11;;;;;;;4.18;3.83;;;;;;;;;;12628867;23;20173;-73
2022/04/30 14:16:12;;;;;;;4.20;3.80;;;;;;;;;;12648945;23;20192;-74
2022/04/30 14:21:13;;;;;;;6.88;3.70;;;;;;;;;;12657044;23;20841;-74
2022/04/30 14:26:15;;;;;;;7.78;3.83;;;;;;;;;;12654237;23;20220;-74
2022/04/30 14:31:16;;;;;;;4.18;3.78;;;;;;;;;;12658648;23;20196;-74
2022/04/30 14:36:17;;;;;;;7.10;3.70;;;;;;;;;;12657066;23;20580;-74
2022/04/30 14:41:18;;;;;;;4.05;3.67;;;;;;;;;;12655606;23;20199;-74
2022/04/30 14:46:20;;;;;;;3.60;3.42;;;;;;;;;;12595116;23;20209;-72
2022/04/30 14:51:21;;;;;;;4.60;4.38;;;;;;;;;;12594457;23;20242;-74
2022/04/30 14:56:23;;;;;;;6.72;5.07;;;;;;;;;;12596691;23;20278;-73
2022/04/30 15:01:24;;;;;;;4.43;4.15;;;;;;;;;;12594950;23;20236;-72
2022/04/30 15:06:25;;;;;;;7.85;6.68;;;;;;;;;;12571221;23;20657;-73
2022/04/30 15:11:26;;;;;;;9.50;5.22;;;;;;;;;;12596020;23;20196;-71
2022/04/30 15:16:27;;;;;;;6.07;5.07;;;;;;;;;;12574058;23;20236;-76
2022/04/30 15:21:29;;;;;;;6.60;5.38;;;;;;;;;;12603749;23;20181;-78
2022/04/30 15:26:30;;;;;;;5.63;4.80;;;;;;;;;;12605622;23;20194;-78
2022/04/30 15:31:31;;;;;;;4.32;3.97;;;;;;;;;;12579387;23;20306;-78
2022/04/30 15:36:33;;;;;;;6.10;4.18;;;;;;;;;;12606681;23;20191;-78
2022/04/30 15:41:35;;;;;;;4.97;4.55;;;;;;;;;;12604702;23;20185;-78
2022/04/30 15:51:57;;;;;;;5.90;4.50;;;;;;;;;;12604471;23;20696;-78
2022/04/30 15:57:02;;;;;;;4.28;3.97;;;;;;;;;;12603566;23;20185;-78
2022/04/30 16:02:05;;;;;;;5.40;4.38;;;;;;;;;;12599759;23;20205;-79
2022/04/30 16:07:08;;;;;;;9.98;4.10;;;;;;;;;;12596569;23;20197;-79
2022/04/30 16:12:11;;;;;;;4.78;4.32;;;;;;;;;;12596960;23;20631;-78
2022/04/30 16:17:12;;;;;;;6.78;3.65;;;;;;;;;;12599594;23;20189;-79
2022/04/30 16:22:13;;;;;;;6.07;3.95;;;;;;;;;;12598519;23;20616;-78
2022/04/30 16:27:14;;;;;;;4.65;4.30;;;;;;;;;;12600794;23;20197;-79
2022/04/30 16:32:16;;;;;;;6.55;4.13;;;;;;;;;;12602619;23;20870;-77
2022/04/30 16:37:17;;;;;;;5.25;4.78;;;;;;;;;;12603372;23;20182;-79
2022/04/30 16:42:18;;;;;;;10.85;3.63;;;;;;;;;;12616645;23;20291;-78
2022/04/30 16:47:19;;;;;;;9.82;6.30;;;;;;;;;;12663512;23;20200;-74
2022/04/30 16:52:20;;;;;;;11.38;5.68;;;;;;;;;;12662665;23;20511;-77
2022/04/30 16:57:21;;;;;;;8.10;6.00;;;;;;;;;;12662772;23;20255;-74
2022/04/30 17:02:22;;;;;;;6.85;5.05;;;;;;;;;;12659686;23;20529;-73
2022/04/30 17:07:23;;;;;;;4.22;3.92;;;;;;;;;;12659944;23;20184;-78
2022/04/30 17:12:24;;;;;;;4.35;3.95;;;;;;;;;;12661964;23;20185;-80
2022/04/30 17:17:25;;;;;;;6.32;4.20;;;;;;;;;;12663495;23;20212;-77
2022/04/30 17:22:26;;;;;;;4.22;3.88;;;;;;;;;;12662556;23;20742;-80
2022/04/30 17:27:27;;;;;;;4.22;3.88;;;;;;;;;;12632275;23;20276;-70
2022/04/30 17:38:04;;;;;;;6.75;2.92;;;;;;;;;;12658941;23;20200;-74
2022/04/30 17:43:06;;;;;;;7.47;3.50;;;;;;;;;;12660237;23;20298;-73
2022/04/30 17:48:08;;;;;;;4.68;3.05;;;;;;;;;;12658578;23;20196;-72
2022/04/30 17:53:09;;;;;;;4.15;3.75;;;;;;;;;;12658546;23;20208;-72
2022/04/30 17:58:11;;;;;;;5.63;4.03;;;;;;;;;;12658012;23;20183;-74
2022/04/30 18:03:13;;;;;;;3.60;3.30;;;;;;;;;;12657917;23;20209;-74
2022/04/30 18:08:14;;;;;;;4.95;3.72;;;;;;;;;;12659762;23;20193;-76
2022/04/30 18:13:16;;;;;;;4.25;3.92;;;;;;;;;;12633830;23;20180;-75
2022/04/30 18:18:17;;;;;;;4.60;4.05;;;;;;;;;;12634074;23;20189;-74
2022/04/30 18:23:18;;;;;;;4.53;4.22;;;;;;;;;;12632864;23;20268;-73
2022/04/30 18:28:19;;;;;;;6.13;4.60;;;;;;;;;;12660295;23;20337;-75
2022/04/30 18:33:22;;;;;;;8.02;3.83;;;;;;;;;;12654688;23;20224;-74
2022/04/30 18:38:26;;;;;;;4.07;3.78;;;;;;;;;;12655871;23;20340;-74
2022/04/30 18:43:27;;;;;;;3.95;3.38;;;;;;;;;;12633882;23;20227;-74
2022/04/30 18:48:28;;;;;;;4.15;3.30;;;;;;;;;;12658369;23;20192;-71
2022/04/30 18:53:29;;;;;;;3.55;3.25;;;;;;;;;;12657242;23;20299;-70
2022/04/30 19:03:50;;;;;;;4.57;2.95;;;;;;;;;;12651455;23;20211;-74
2022/04/30 19:08:51;;;;;;;3.10;3.00;;;;;;;;;;12651921;23;20196;-73
2022/04/30 19:13:52;;;;;;;5.13;4.05;;;;;;;;;;12655012;23;20905;-73
2022/04/30 19:18:57;;;;;;;4.03;3.70;;;;;;;;;;12653109;23;20177;-72
2022/04/30 19:23:58;;;;;;;2.97;2.80;;;;;;;;;;12656729;23;20195;-71
2022/04/30 19:28:59;;;;;;;2.75;2.60;;;;;;;;;;12654500;23;20275;-71
2022/04/30 19:34:00;;;;;;;5.00;3.05;;;;;;;;;;12626614;23;20197;-71
2022/04/30 19:39:01;;;;;;;3.67;3.35;;;;;;;;;;12655013;23;20177;-72
2022/04/30 19:44:04;;;;;;;4.07;2.58;;;;;;;;;;12628925;23;20246;-71
2022/04/30 19:49:05;;;;;;;2.90;2.75;;;;;;;;;;12662579;23;20557;-78
2022/04/30 19:54:07;;;;;;;2.88;2.53;;;;;;;;;;12627474;23;20267;-77
2022/04/30 19:59:08;;;;;;;4.28;2.50;;;;;;;;;;12656840;23;20184;-78
2022/04/30 20:04:09;;;;;;;4.57;2.72;;;;;;;;;;12656239;23;20665;-77
2022/04/30 20:09:10;;;;;;;3.47;3.10;;;;;;;;;;12656405;23;20193;-77
2022/04/30 20:19:31;;;;;;;5.60;3.10;;;;;;;;;;12656897;23;20188;-78
2022/04/30 20:24:33;;;;;;;3.45;3.17;;;;;;;;;;12657087;23;20177;-77
2022/04/30 20:29:34;;;;;;;3.97;3.60;;;;;;;;;;12629639;23;20589;-77
2022/04/30 20:39:55;;;;;;;4.35;3.05;;;;;;;;;;12656674;23;20271;-77
2022/04/30 20:44:57;;;;;;;4.70;2.60;;;;;;;;;;12655993;23;20216;-77
2022/04/30 20:49:58;;;;;;;6.90;3.25;;;;;;;;;;12655816;23;20597;-77
2022/04/30 20:54:59;;;;;;;3.50;3.30;;;;;;;;;;12655160;23;20183;-76
2022/04/30 21:00:01;;;;;;;3.05;2.75;;;;;;;;;;12656629;23;20176;-77
2022/04/30 21:05:02;;;;;;;4.10;3.67;;;;;;;;;;12656977;23;20207;-77
2022/04/30 21:10:05;;;;;;;4.28;3.65;;;;;;;;;;12657854;23;20228;-76
2022/04/30 21:15:06;;;;;;;6.15;4.25;;;;;;;;;;12662168;23;20191;-77
2022/04/30 21:20:10;;;;;;;7.70;4.85;;;;;;;;;;12660977;23;20223;-78
2022/04/30 21:25:12;;;;;;;15.48;6.10;;;;;;;;;;12634452;23;20532;-78
2022/04/30 21:30:13;;;;;;;13.20;6.30;;;;;;;;;;12660530;23;20184;-77
2022/04/30 21:35:14;;;;;;;13.05;7.15;;;;;;;;;;12661827;23;20557;-77
2022/04/30 21:41:52;;;;;;;12.77;6.30;;;;;;;;;;12657987;23;20277;-77
2022/04/30 21:45:36;;;;;;;13.00;5.85;;;;;;;;;;12657038;23;20208;-76
2022/04/30 21:50:38;;;;;;;13.02;5.20;;;;;;;;;;12656274;23;20248;-77
2022/04/30 22:01:04;;;;;;;7.03;4.00;;;;;;;;;;12656591;23;20196;-76
2022/04/30 22:06:06;;;;;;;8.10;3.90;;;;;;;;;;12659592;23;20215;-76
2022/04/30 22:11:08;;;;;;;8.45;3.97;;;;;;;;;;12660231;23;20177;-76
2022/04/30 22:16:10;;;;;;;3.25;3.03;;;;;;;;;;12632028;23;20232;-77
2022/04/30 22:21:11;;;;;;;6.07;2.78;;;;;;;;;;12657924;23;20267;-76
2022/04/30 22:26:12;;;;;;;5.20;2.97;;;;;;;;;;12659066;23;20342;-77
2022/04/30 22:31:14;;;;;;;6.30;3.17;;;;;;;;;;12658394;23;20745;-77
2022/04/30 22:36:15;;;;;;;2.63;2.22;;;;;;;;;;12659323;23;20212;-77
2022/04/30 22:46:42;;;;;;;2.75;2.50;;;;;;;;;;12658212;23;20196;-77
2022/04/30 22:51:46;;;;;;;5.05;2.75;;;;;;;;;;12656437;23;20204;-77
2022/04/30 22:56:47;;;;;;;7.32;2.60;;;;;;;;;;12658379;23;20192;-77
2022/04/30 23:01:48;;;;;;;5.00;2.47;;;;;;;;;;12655888;23;20212;-77
2022/04/30 23:06:49;;;;;;;2.70;2.60;;;;;;;;;;12659005;23;20256;-77
2022/04/30 23:11:50;;;;;;;3.75;2.35;;;;;;;;;;12656630;23;20251;-76
2022/04/30 23:16:51;;;;;;;3.35;2.17;;;;;;;;;;12657478;23;20188;-77
2022/04/30 23:21:52;;;;;;;3.20;2.80;;;;;;;;;;12658517;23;20172;-76
2022/04/30 23:26:54;;;;;;;3.05;2.00;;;;;;;;;;12656461;23;20223;-77
2022/04/30 23:31:55;;;;;;;3.03;2.25;;;;;;;;;;12657962;23;20224;-76
2022/04/30 23:36:56;;;;;;;2.22;2.03;;;;;;;;;;12682200;23;20196;-76
2022/04/30 23:41:57;;;;;;;2.30;2.20;;;;;;;;;;12657508;23;20196;-76
2022/04/30 23:46:58;;;;;;;2.97;2.55;;;;;;;;;;12658943;23;20212;-76
2022/04/30 23:51:59;;;;;;;2.33;2.15;;;;;;;;;;12657001;23;20200;-76
2022/04/30 23:57:01;;;;;;;5.90;2.70;;;;;;;;;;12648688;23;20615;-76
